createdAt,value
2018-11-11T00:01:44.885Z,77100.05
2018-11-11T00:04:12.548Z,77104.05
2018-11-11T00:06:40.400Z,77106.05
2018-11-11T00:09:09.049Z,77103.05
2018-11-11T00:11:36.011Z,77103.05
2018-11-11T00:14:02.847Z,77092.04
2018-11-11T00:16:29.724Z,77077.02
2018-11-11T00:18:57.139Z,77067.02
2018-11-11T00:21:24.957Z,76984.95
2018-11-11T00:23:52.659Z,76935.91
2018-11-11T00:26:20.405Z,76914.89
2018-11-11T00:28:48.295Z,76904.88
2018-11-11T00:31:15.235Z,76906.88
2018-11-11T00:33:42.567Z,76904.88
2018-11-11T00:36:10.715Z,76896.88
2018-11-11T00:38:40.208Z,76895.88
2018-11-11T00:41:07.186Z,76893.88
2018-11-11T00:43:34.943Z,76885.86
2018-11-11T00:46:02.992Z,76880.86
2018-11-11T00:48:29.822Z,76876.86
2018-11-11T00:50:56.832Z,76877.86
2018-11-11T00:53:24.657Z,76880.86
2018-11-11T00:55:51.511Z,76882.86
2018-11-11T00:58:18.369Z,76874.86
2018-11-11T01:00:45.213Z,76879.86
2018-11-11T01:03:13.965Z,76882.86
2018-11-11T01:05:40.813Z,76883.86
2018-11-11T01:08:08.487Z,76876.86
2018-11-11T01:10:36.304Z,76872.86
2018-11-11T01:13:04.671Z,76862.84
2018-11-11T01:15:31.511Z,76858.84
2018-11-11T01:17:58.333Z,76853.84
2018-11-11T01:20:25.148Z,76850.84
2018-11-11T01:22:51.983Z,76856.84
2018-11-11T01:25:18.798Z,76851.84
2018-11-11T01:27:45.615Z,76861.84
2018-11-11T01:30:13.746Z,76862.84
2018-11-11T01:32:41.564Z,76861.84
2018-11-11T01:35:11.134Z,76866.84
2018-11-11T01:37:39.059Z,76866.84
2018-11-11T01:40:07.146Z,76861.84
2018-11-11T01:42:35.022Z,76864.84
2018-11-11T01:45:01.867Z,76860.84
2018-11-11T01:47:28.777Z,76857.84
2018-11-11T01:49:56.466Z,76861.84
2018-11-11T01:52:24.247Z,76864.84
2018-11-11T01:54:52.029Z,76861.84
2018-11-11T01:57:18.941Z,76857.84
2018-11-11T01:59:46.541Z,76853.84
2018-11-11T02:02:13.989Z,76852.84
2018-11-11T02:04:41.724Z,76851.84
2018-11-11T02:07:08.549Z,76846.83
2018-11-11T02:09:35.494Z,76843.83
2018-11-11T02:12:02.300Z,76849.84
2018-11-11T02:14:29.142Z,76844.83
2018-11-11T02:16:56.801Z,76845.83
2018-11-11T02:19:23.666Z,76842.83
2018-11-11T02:21:50.485Z,76842.83
2018-11-11T02:24:17.308Z,76848.84
2018-11-11T02:26:44.910Z,76853.84
2018-11-11T02:29:11.732Z,76852.84
2018-11-11T02:31:38.563Z,76853.84
2018-11-11T02:34:05.379Z,76847.84
2018-11-11T02:36:33.029Z,76848.84
2018-11-11T02:38:59.863Z,76845.83
2018-11-11T02:41:26.684Z,76849.84
2018-11-11T02:43:54.454Z,76844.83
2018-11-11T02:46:22.349Z,76845.83
2018-11-11T02:48:50.128Z,76852.84
2018-11-11T02:51:17.922Z,76851.84
2018-11-11T02:53:46.992Z,76850.84
2018-11-11T02:56:20.783Z,76851.84
2018-11-11T02:58:47.612Z,76850.84
2018-11-11T03:01:15.342Z,76853.84
2018-11-11T03:03:42.145Z,76858.84
2018-11-11T03:06:09.786Z,76855.84
2018-11-11T03:08:37.550Z,76849.84
2018-11-11T03:11:05.234Z,76858.84
2018-11-11T03:13:33.104Z,76858.84
2018-11-11T03:16:00.743Z,76850.84
2018-11-11T03:18:28.537Z,76846.83
2018-11-11T03:20:56.176Z,76844.83
2018-11-11T03:23:23.952Z,76848.84
2018-11-11T03:25:51.760Z,76838.83
2018-11-11T03:28:19.546Z,76839.83
2018-11-11T03:30:47.283Z,76845.83
2018-11-11T03:33:14.998Z,76855.84
2018-11-11T03:35:42.675Z,76854.84
2018-11-11T03:38:10.313Z,76857.84
2018-11-11T03:40:38.130Z,76860.84
2018-11-11T03:43:05.886Z,76862.84
2018-11-11T03:45:32.777Z,76859.84
2018-11-11T03:47:59.604Z,76857.84
2018-11-11T03:50:26.438Z,76862.84
2018-11-11T03:52:53.358Z,76864.84
2018-11-11T03:55:20.173Z,76860.84
2018-11-11T03:57:46.971Z,76864.84
2018-11-11T04:00:16.303Z,76859.84
2018-11-11T04:02:44.008Z,76854.84
2018-11-11T04:05:12.184Z,76854.84
2018-11-11T04:07:40.139Z,76852.84
2018-11-11T04:10:07.953Z,76852.84
2018-11-11T04:12:34.829Z,76863.84
2018-11-11T04:15:02.517Z,76868.85
2018-11-11T04:17:29.366Z,76874.86
2018-11-11T04:19:57.032Z,76877.86
2018-11-11T04:22:24.638Z,76881.86
2018-11-11T04:24:52.423Z,76878.86
2018-11-11T04:27:20.036Z,76877.86
2018-11-11T04:29:46.866Z,76878.86
2018-11-11T04:32:15.712Z,76875.86
2018-11-11T04:34:43.766Z,76879.86
2018-11-11T04:37:11.495Z,76876.86
2018-11-11T04:39:38.724Z,76874.86
2018-11-11T04:42:05.556Z,76879.86
2018-11-11T04:44:40.077Z,76880.86
2018-11-11T04:47:06.859Z,76878.86
2018-11-11T04:49:33.803Z,76877.86
2018-11-11T04:52:01.433Z,76873.86
2018-11-11T04:54:28.324Z,76875.86
2018-11-11T04:56:55.157Z,76873.86
2018-11-11T04:59:22.894Z,76878.86
2018-11-11T05:01:49.723Z,76881.86
2018-11-11T05:04:17.532Z,76885.86
2018-11-11T05:06:45.072Z,76873.86
2018-11-11T05:09:13.594Z,76869.85
2018-11-11T05:11:40.721Z,76868.85
2018-11-11T05:14:07.753Z,76865.84
2018-11-11T05:16:34.666Z,76868.85
2018-11-11T05:19:01.507Z,76868.85
2018-11-11T05:21:29.249Z,76866.84
2018-11-11T05:23:57.027Z,76868.85
2018-11-11T05:26:24.056Z,76871.85
2018-11-11T05:28:51.894Z,76872.86
2018-11-11T05:31:19.669Z,76877.86
2018-11-11T05:33:46.500Z,76874.86
2018-11-11T05:36:15.341Z,76882.86
2018-11-11T05:38:42.149Z,76882.86
2018-11-11T05:41:09.809Z,76886.86
2018-11-11T05:43:36.642Z,76886.86
2018-11-11T05:46:03.573Z,76896.88
2018-11-11T05:48:31.237Z,76894.88
2018-11-11T05:50:58.899Z,76900.88
2018-11-11T05:53:26.637Z,76897.88
2018-11-11T05:55:53.475Z,76902.88
2018-11-11T05:58:21.289Z,76903.88
2018-11-11T06:00:49.094Z,76906.88
2018-11-11T06:03:15.904Z,76906.88
2018-11-11T06:05:42.725Z,76912.89
2018-11-11T06:08:10.412Z,76910.89
2018-11-11T06:10:38.192Z,76916.89
2018-11-11T06:13:05.067Z,76913.89
2018-11-11T06:15:31.999Z,76918.89
2018-11-11T06:17:58.825Z,76918.89
2018-11-11T06:20:26.604Z,76909.89
2018-11-11T06:22:54.273Z,76903.88
2018-11-11T06:25:21.908Z,76901.88
2018-11-11T06:27:49.645Z,76903.88
2018-11-11T06:30:16.508Z,76894.88
2018-11-11T06:32:44.264Z,76893.88
2018-11-11T06:35:11.077Z,76894.88
2018-11-11T06:37:38.991Z,76901.88
2018-11-11T06:40:07.539Z,76902.88
2018-11-11T06:42:35.206Z,76899.88
2018-11-11T06:45:03.127Z,76898.88
2018-11-11T06:47:30.797Z,76897.88
2018-11-11T06:49:58.549Z,76897.88
2018-11-11T06:52:25.400Z,76890.87
2018-11-11T06:54:52.420Z,76900.88
2018-11-11T06:57:20.250Z,76897.88
2018-11-11T06:59:47.068Z,76906.88
2018-11-11T07:02:15.933Z,76906.88
2018-11-11T07:04:42.760Z,76914.89
2018-11-11T07:07:10.558Z,76910.89
2018-11-11T07:09:38.423Z,76901.88
2018-11-11T07:12:06.178Z,76894.88
2018-11-11T07:14:33.009Z,76895.88
2018-11-11T07:17:00.832Z,76899.88
2018-11-11T07:19:28.645Z,76904.88
2018-11-11T07:21:55.482Z,76902.88
2018-11-11T07:24:23.333Z,76902.88
2018-11-11T07:26:50.339Z,76902.88
2018-11-11T07:29:17.358Z,76901.88
2018-11-11T07:31:45.329Z,76889.87
2018-11-11T07:34:12.182Z,76906.88
2018-11-11T07:36:39.073Z,76910.89
2018-11-11T07:39:07.930Z,76912.89
2018-11-11T07:41:34.763Z,76905.88
2018-11-11T07:44:02.413Z,76892.88
2018-11-11T07:46:29.246Z,76892.88
2018-11-11T07:48:56.064Z,76894.88
2018-11-11T07:51:22.910Z,76897.88
2018-11-11T07:53:49.727Z,76903.88
2018-11-11T07:56:16.556Z,76895.88
2018-11-11T07:58:44.367Z,76893.88
2018-11-11T08:01:11.150Z,76894.88
2018-11-11T08:03:37.994Z,76886.86
2018-11-11T08:06:04.815Z,76892.88
2018-11-11T08:08:31.621Z,76899.88
2018-11-11T08:11:04.223Z,76899.88
2018-11-11T08:13:31.045Z,76900.88
2018-11-11T08:15:57.969Z,76894.88
2018-11-11T08:18:24.808Z,76883.86
2018-11-11T08:20:51.669Z,76885.86
2018-11-11T08:23:18.540Z,76879.86
2018-11-11T08:25:45.424Z,76880.86
2018-11-11T08:28:12.263Z,76871.85
2018-11-11T08:30:40.154Z,76873.86
2018-11-11T08:33:07.023Z,76886.86
2018-11-11T08:35:33.899Z,76901.88
2018-11-11T08:38:00.749Z,76902.88
2018-11-11T08:40:27.649Z,76891.87
2018-11-11T08:42:54.494Z,76890.87
2018-11-11T08:45:21.312Z,76881.86
2018-11-11T08:47:48.264Z,76883.86
2018-11-11T08:50:15.096Z,76880.86
2018-11-11T08:52:42.210Z,76880.86
2018-11-11T08:55:09.411Z,76882.86
2018-11-11T08:57:37.134Z,76884.86
2018-11-11T09:00:06.691Z,76883.86
2018-11-11T09:02:34.469Z,76879.86
2018-11-11T09:05:01.379Z,76881.86
2018-11-11T09:07:28.247Z,76889.87
2018-11-11T09:09:55.974Z,76893.88
2018-11-11T09:12:23.727Z,76908.89
2018-11-11T09:14:51.411Z,76914.89
2018-11-11T09:17:18.375Z,76910.89
2018-11-11T09:19:45.180Z,76907.88
2018-11-11T09:22:12.814Z,76911.89
2018-11-11T09:24:40.775Z,76910.89
2018-11-11T09:27:08.580Z,76920.89
2018-11-11T09:29:36.059Z,76930.91
2018-11-11T09:32:03.748Z,76927.90
2018-11-11T09:34:30.736Z,76926.90
2018-11-11T09:36:57.599Z,76925.90
2018-11-11T09:39:24.406Z,76927.90
2018-11-11T09:41:51.299Z,76930.91
2018-11-11T09:44:19.036Z,76935.91
2018-11-11T09:46:48.195Z,76928.91
2018-11-11T09:49:15.875Z,76930.91
2018-11-11T09:51:44.810Z,76928.91
2018-11-11T09:54:13.594Z,76926.90
2018-11-11T09:56:41.280Z,76922.89
2018-11-11T09:59:18.204Z,76930.91
2018-11-11T10:01:50.213Z,76931.91
2018-11-11T10:05:22.228Z,76926.90
2018-11-11T10:07:58.596Z,76927.90
2018-11-11T10:11:01.071Z,76924.90
2018-11-11T10:13:33.322Z,76926.90
2018-11-11T10:16:38.848Z,76938.91
2018-11-11T10:19:12.738Z,76948.92
2018-11-11T10:21:44.319Z,76998.96
2018-11-11T10:24:20.722Z,77024.98
2018-11-11T10:26:59.779Z,77014.97
2018-11-11T10:29:32.218Z,77011.97
2018-11-11T10:32:06.917Z,77024.98
2018-11-11T10:34:45.856Z,77014.97
2018-11-11T10:37:16.701Z,77025.98
2018-11-11T10:39:48.284Z,77038.99
2018-11-11T10:42:22.853Z,77028.98
2018-11-11T10:44:55.101Z,77036.99
2018-11-11T10:47:35.535Z,77022.98
2018-11-11T10:50:05.130Z,77013.97
2018-11-11T10:52:32.988Z,77046.00
2018-11-11T10:55:00.678Z,77038.99
2018-11-11T10:57:27.551Z,77022.98
2018-11-11T10:59:54.384Z,77047.00
2018-11-11T11:02:27.172Z,77047.00
2018-11-11T11:04:59.764Z,77077.02
2018-11-11T11:07:26.630Z,77068.02
2018-11-11T11:09:53.479Z,77067.02
2018-11-11T11:12:20.310Z,77065.02
2018-11-11T11:14:47.132Z,77123.06
2018-11-11T11:17:14.825Z,77118.06
2018-11-11T11:19:41.622Z,77120.06
2018-11-11T11:22:08.596Z,77121.06
2018-11-11T11:24:35.446Z,77123.06
2018-11-11T11:27:02.329Z,77109.05
2018-11-11T11:29:29.164Z,77108.05
2018-11-11T11:31:56.033Z,77103.05
2018-11-11T11:34:22.832Z,77101.05
2018-11-11T11:36:50.499Z,77105.05
2018-11-11T11:39:18.380Z,77103.05
2018-11-11T11:41:46.049Z,77106.05
2018-11-11T11:44:14.866Z,77104.05
2018-11-11T11:46:44.045Z,77107.05
2018-11-11T11:49:11.766Z,77094.05
2018-11-11T11:51:39.445Z,77103.05
2018-11-11T11:54:07.165Z,77113.06
2018-11-11T11:56:34.935Z,77111.05
2018-11-11T11:59:02.823Z,77117.06
2018-11-11T12:01:29.646Z,77115.06
2018-11-11T12:03:56.472Z,77119.06
2018-11-11T12:06:24.158Z,77119.06
2018-11-11T12:08:52.006Z,77116.06
2018-11-11T12:11:18.812Z,77114.06
2018-11-11T12:13:46.637Z,77112.06
2018-11-11T12:16:14.547Z,77112.06
2018-11-11T12:18:42.490Z,77113.06
2018-11-11T12:21:09.382Z,77103.05
2018-11-11T12:23:37.257Z,77117.06
2018-11-11T12:26:04.137Z,77103.05
2018-11-11T12:28:31.982Z,77098.05
2018-11-11T12:30:58.915Z,77094.05
2018-11-11T12:33:26.707Z,77081.03
2018-11-11T12:35:54.411Z,77089.03
2018-11-11T12:38:22.042Z,77091.03
2018-11-11T12:40:48.903Z,77095.05
2018-11-11T12:43:16.580Z,77083.03
2018-11-11T12:45:45.266Z,77083.03
2018-11-11T12:48:13.871Z,77059.01
2018-11-11T12:50:40.732Z,77043.00
2018-11-11T12:53:07.949Z,77036.99
2018-11-11T12:55:35.783Z,77033.98
2018-11-11T12:58:03.700Z,77047.00
2018-11-11T13:00:31.626Z,77015.97
2018-11-11T13:02:59.488Z,76990.95
2018-11-11T13:05:27.341Z,76979.94
2018-11-11T13:07:54.411Z,76964.93
2018-11-11T13:10:22.274Z,76969.94
2018-11-11T13:12:50.386Z,76973.94
2018-11-11T13:15:18.196Z,76959.92
2018-11-11T13:17:46.052Z,76955.92
2018-11-11T13:20:14.541Z,76946.91
2018-11-11T13:22:42.284Z,76953.92
2018-11-11T13:25:11.203Z,76961.92
2018-11-11T13:27:38.989Z,76965.93
2018-11-11T13:30:07.421Z,76958.92
2018-11-11T13:32:34.267Z,76953.92
2018-11-11T13:35:01.100Z,76963.93
2018-11-11T13:37:27.936Z,76961.92
2018-11-11T13:39:55.713Z,76966.93
2018-11-11T13:42:23.521Z,76958.92
2018-11-11T13:44:58.256Z,76960.92
2018-11-11T13:47:25.875Z,76969.94
2018-11-11T13:49:53.700Z,76973.94
2018-11-11T13:52:21.439Z,76976.94
2018-11-11T13:54:49.236Z,76969.94
2018-11-11T13:57:16.976Z,76969.94
2018-11-11T13:59:44.655Z,76971.94
2018-11-11T14:02:11.493Z,76980.94
2018-11-11T14:04:39.208Z,76990.95
2018-11-11T14:07:06.051Z,76986.95
2018-11-11T14:09:33.891Z,76984.95
2018-11-11T14:12:01.627Z,76976.94
2018-11-11T14:14:29.485Z,76986.95
2018-11-11T14:16:56.410Z,76991.95
2018-11-11T14:19:24.429Z,76989.95
2018-11-11T14:21:51.148Z,76992.95
2018-11-11T14:24:18.982Z,76991.95
2018-11-11T14:26:46.047Z,76995.95
2018-11-11T14:29:14.320Z,76994.95
2018-11-11T14:31:42.037Z,76994.95
2018-11-11T14:34:08.934Z,76991.95
2018-11-11T14:36:36.913Z,76994.95
2018-11-11T14:39:06.673Z,77001.96
2018-11-11T14:41:34.361Z,77002.97
2018-11-11T14:44:01.204Z,77001.96
2018-11-11T14:46:28.889Z,76993.95
2018-11-11T14:48:55.808Z,76996.95
2018-11-11T14:51:23.694Z,76996.95
2018-11-11T14:53:51.480Z,77000.96
2018-11-11T14:56:19.358Z,77002.97
2018-11-11T14:58:47.308Z,77003.97
2018-11-11T15:01:15.038Z,77012.97
2018-11-11T15:03:42.869Z,77008.97
2018-11-11T15:06:09.727Z,77011.97
2018-11-11T15:08:37.507Z,77010.97
2018-11-11T15:11:05.125Z,77007.97
2018-11-11T15:13:32.003Z,77005.97
2018-11-11T15:15:59.758Z,77006.97
2018-11-11T15:18:26.625Z,77009.97
2018-11-11T15:20:53.645Z,77004.97
2018-11-11T15:23:21.304Z,77004.97
2018-11-11T15:25:48.160Z,77005.97
2018-11-11T15:28:15.937Z,77003.97
2018-11-11T15:30:42.873Z,77006.97
2018-11-11T15:33:09.715Z,77001.96
2018-11-11T15:35:36.617Z,77007.97
2018-11-11T15:38:03.923Z,77000.96
2018-11-11T15:40:32.060Z,77002.97
2018-11-11T15:42:59.282Z,76996.95
2018-11-11T15:45:28.101Z,76990.95
2018-11-11T15:47:54.918Z,76987.95
2018-11-11T15:50:24.569Z,76992.95
2018-11-11T15:52:54.629Z,76996.95
2018-11-11T15:55:22.624Z,76999.96
2018-11-11T15:57:50.382Z,77000.96
2018-11-11T16:00:18.613Z,77004.97
2018-11-11T16:02:46.337Z,77005.97
2018-11-11T16:05:15.657Z,77015.97
2018-11-11T16:07:44.246Z,77021.98
2018-11-11T16:10:14.389Z,77027.98
2018-11-11T16:12:42.149Z,77030.98
2018-11-11T16:15:11.340Z,77036.99
2018-11-11T16:17:38.256Z,77034.98
2018-11-11T16:20:06.950Z,77043.00
2018-11-11T16:22:33.874Z,77047.00
2018-11-11T16:25:01.645Z,77047.00
2018-11-11T16:27:28.556Z,77050.00
2018-11-11T16:29:55.405Z,77041.00
2018-11-11T16:32:22.267Z,77038.99
2018-11-11T16:34:50.117Z,77033.98
2018-11-11T16:37:17.895Z,77034.98
2018-11-11T16:39:46.515Z,77037.99
2018-11-11T16:42:14.955Z,77041.00
2018-11-11T16:44:42.747Z,77042.00
2018-11-11T16:47:10.451Z,77045.00
2018-11-11T16:49:38.258Z,77047.00
2018-11-11T16:52:05.951Z,77045.00
2018-11-11T16:54:33.821Z,77044.00
2018-11-11T16:57:01.666Z,77044.00
2018-11-11T16:59:29.441Z,77043.00
2018-11-11T17:01:57.166Z,77043.00
2018-11-11T17:04:25.008Z,77038.99
2018-11-11T17:06:52.829Z,77085.03
2018-11-11T17:09:20.406Z,77134.08
2018-11-11T17:11:48.043Z,77161.09
2018-11-11T17:14:15.784Z,77173.11
2018-11-11T17:16:44.664Z,77171.11
2018-11-11T17:19:12.510Z,77177.11
2018-11-11T17:21:40.522Z,77182.12
2018-11-11T17:24:08.216Z,77189.13
2018-11-11T17:26:35.111Z,77187.13
2018-11-11T17:29:01.992Z,77200.14
2018-11-11T17:31:28.893Z,77209.14
2018-11-11T17:33:56.614Z,77213.15
2018-11-11T17:36:24.350Z,77216.15
2018-11-11T17:38:52.164Z,77166.11
2018-11-11T17:41:20.052Z,77119.06
2018-11-11T17:43:46.849Z,77103.05
2018-11-11T17:46:14.710Z,77096.05
2018-11-11T17:48:41.608Z,77097.05
2018-11-11T17:51:08.558Z,77101.05
2018-11-11T17:53:36.204Z,77097.05
2018-11-11T17:56:03.086Z,77096.05
2018-11-11T17:58:30.015Z,77093.04
2018-11-11T18:00:56.953Z,77088.03
2018-11-11T18:03:24.718Z,77089.03
2018-11-11T18:05:52.572Z,77088.03
2018-11-11T18:08:19.425Z,77093.04
2018-11-11T18:10:46.340Z,77092.04
2018-11-11T18:13:14.201Z,77099.05
2018-11-11T18:15:41.070Z,77092.04
2018-11-11T18:18:07.909Z,77091.03
2018-11-11T18:20:34.891Z,77091.03
2018-11-11T18:23:02.490Z,77099.05
2018-11-11T18:25:29.465Z,77105.05
2018-11-11T18:27:56.784Z,77106.05
2018-11-11T18:30:26.443Z,77112.06
2018-11-11T18:32:54.296Z,77110.05
2018-11-11T18:35:21.371Z,77106.05
2018-11-11T18:37:48.214Z,77106.05
2018-11-11T18:40:21.436Z,77103.05
2018-11-11T18:42:48.604Z,77103.05
2018-11-11T18:45:28.087Z,77110.05
2018-11-11T18:47:55.580Z,77115.06
2018-11-11T18:50:24.121Z,77116.06
2018-11-11T18:52:52.699Z,77107.05
2018-11-11T18:55:19.733Z,77115.06
2018-11-11T18:57:46.827Z,77119.06
2018-11-11T19:00:19.120Z,77119.06
2018-11-11T19:02:47.032Z,77120.06
2018-11-11T19:05:16.804Z,77127.07
2018-11-11T19:07:45.283Z,77128.07
2018-11-11T19:10:14.528Z,77124.06
2018-11-11T19:12:42.409Z,77124.06
2018-11-11T19:15:10.564Z,77120.06
2018-11-11T19:17:38.548Z,77111.05
2018-11-11T19:20:07.337Z,77112.06
2018-11-11T19:22:34.179Z,77108.05
2018-11-11T19:25:02.078Z,77113.06
2018-11-11T19:27:29.082Z,77112.06
2018-11-11T19:29:55.934Z,77113.06
2018-11-11T19:32:23.806Z,77118.06
2018-11-11T19:34:50.718Z,77114.06
2018-11-11T19:37:17.601Z,77114.06
2018-11-11T19:39:45.207Z,77112.06
2018-11-11T19:42:14.116Z,77123.06
2018-11-11T19:44:41.005Z,77121.06
2018-11-11T19:47:07.953Z,77126.07
2018-11-11T19:49:35.737Z,77126.07
2018-11-11T19:52:03.604Z,77132.08
2018-11-11T19:54:31.407Z,77124.06
2018-11-11T19:56:59.296Z,77118.06
2018-11-11T19:59:26.212Z,77116.06
2018-11-11T20:01:54.009Z,77107.05
2018-11-11T20:04:21.868Z,77106.05
2018-11-11T20:06:49.297Z,77106.05
2018-11-11T20:09:16.185Z,77103.05
2018-11-11T20:11:44.044Z,77105.05
2018-11-11T20:14:10.976Z,77107.05
2018-11-11T20:16:38.319Z,77113.06
2018-11-11T20:19:05.348Z,77121.06
2018-11-11T20:21:32.352Z,77123.06
2018-11-11T20:23:59.322Z,77123.06
2018-11-11T20:26:26.527Z,77126.07
2018-11-11T20:28:53.470Z,77129.07
2018-11-11T20:31:20.373Z,77124.06
2018-11-11T20:33:48.243Z,77129.07
2018-11-11T20:36:16.035Z,77128.07
2018-11-11T20:38:44.765Z,77130.08
2018-11-11T20:41:11.639Z,77131.08
2018-11-11T20:43:38.532Z,77130.08
2018-11-11T20:46:05.598Z,77133.08
2018-11-11T20:48:32.539Z,77134.08
2018-11-11T20:51:00.340Z,77179.11
2018-11-11T20:53:27.203Z,77201.14
2018-11-11T20:55:54.076Z,77185.13
2018-11-11T20:58:20.962Z,77163.10
2018-11-11T21:00:48.655Z,77156.09
2018-11-11T21:03:15.514Z,77159.09
2018-11-11T21:05:42.363Z,77163.10
2018-11-11T21:08:09.354Z,77166.11
2018-11-11T21:10:36.393Z,77173.11
2018-11-11T21:13:05.297Z,77182.12
2018-11-11T21:15:33.087Z,77175.11
2018-11-11T21:18:00.022Z,77173.11
2018-11-11T21:20:29.088Z,77174.11
2018-11-11T21:22:55.913Z,77172.11
2018-11-11T21:25:22.805Z,77210.14
2018-11-11T21:27:50.557Z,77189.13
2018-11-11T21:30:19.530Z,77180.12
2018-11-11T21:32:46.728Z,77169.11
2018-11-11T21:35:19.781Z,77173.11
2018-11-11T21:37:46.682Z,77181.12
2018-11-11T21:40:16.420Z,77174.11
2018-11-11T21:42:44.279Z,77167.11
2018-11-11T21:45:12.574Z,77161.09
2018-11-11T21:47:39.668Z,77157.09
2018-11-11T21:50:07.243Z,77157.09
2018-11-11T21:52:34.161Z,77160.09
2018-11-11T21:55:01.126Z,77164.10
2018-11-11T21:57:28.016Z,77167.11
2018-11-11T21:59:55.763Z,77167.11
2018-11-11T22:02:22.656Z,77159.09
2018-11-11T22:04:49.515Z,77157.09
2018-11-11T22:07:16.358Z,77152.09
2018-11-11T22:09:45.076Z,77151.09
2018-11-11T22:12:13.619Z,77143.08
2018-11-11T22:14:40.463Z,77145.09
2018-11-11T22:17:07.484Z,77139.08
2018-11-11T22:19:34.337Z,77148.09
2018-11-11T22:22:01.345Z,77154.09
2018-11-11T22:24:28.280Z,77159.09
2018-11-11T22:26:55.271Z,77166.11
2018-11-11T22:29:22.081Z,77171.11
2018-11-11T22:31:49.303Z,77173.11
2018-11-11T22:34:16.187Z,77173.11
2018-11-11T22:36:43.999Z,77183.12
2018-11-11T22:39:11.613Z,77190.13
2018-11-11T22:41:38.491Z,77193.13
2018-11-11T22:44:07.182Z,77191.13
2018-11-11T22:46:34.046Z,77189.13
2018-11-11T22:49:01.033Z,77196.13
2018-11-11T22:51:27.901Z,77193.13
2018-11-11T22:53:54.942Z,77205.14
2018-11-11T22:56:21.803Z,77211.14
2018-11-11T22:58:49.648Z,77204.14
2018-11-11T23:01:18.642Z,77207.14
2018-11-11T23:03:46.502Z,77207.14
2018-11-11T23:06:14.217Z,77217.16
2018-11-11T23:08:41.101Z,77217.16
2018-11-11T23:11:07.939Z,77216.15
2018-11-11T23:13:34.785Z,77214.15
2018-11-11T23:16:01.678Z,77222.16
2018-11-11T23:18:29.372Z,77217.16
2018-11-11T23:20:56.189Z,77218.16
2018-11-11T23:23:23.035Z,77228.16
2018-11-11T23:25:49.888Z,77227.16
2018-11-11T23:28:17.688Z,77225.16
2018-11-11T23:30:45.448Z,77227.16
2018-11-11T23:33:12.294Z,77228.16
2018-11-11T23:35:39.148Z,77222.16
2018-11-11T23:38:05.964Z,77226.16
2018-11-11T23:40:33.635Z,77227.16
2018-11-11T23:43:00.496Z,77224.16
2018-11-11T23:45:28.310Z,77217.16
2018-11-11T23:47:56.166Z,77222.16
2018-11-11T23:50:22.986Z,77230.16
2018-11-11T23:52:49.830Z,77231.16
2018-11-11T23:55:17.735Z,77222.16
2018-11-11T23:57:44.865Z,77219.16
